Main page
METAR-TAF:

METAR-TAF

Airports :

Prague, Czech Republic

Václav Havel Airport Prague

latitude: 50-06N, longitude: 014-15E, elevation: 365 m

Current weather observation

The report was made 12 minutes ago, at 22:00 UTC
Wind 6 kt from the West/Southwest
Temperature 15°C
Humidity 72%
Pressure 1020 hPa
Visibility 10 km or more
no clouds below 1500 m and no cumulonimbus

METAR: LKPR 192200Z 25006KT CAVOK 15/10 Q1020 NOSIG

Time: 00:12 (22:12 UTC)

Forecast

The report was made 5 hours and 12 minutes ago, at 17:00 UTC
Forecast valid from 19 at 18 UTC to 21 at 00 UTC
Wind 7 kt from the West
Visibility 10 km or more
Scattered clouds at a height of 3000 ft
Becoming
from 20 at 05 UTC to 20 at 08 UTC
Wind 7 kt from the North/Northwest
Temporary
from 20 at 10 UTC to 20 at 18 UTC
Wind 17 kt from the North/Northwest
Broken clouds at a height of 3000 ft
rain showers

TAF: LKPR 191700Z 1918/2100 27007KT 9999 SCT030 BECMG 2005/2008 33007KT TEMPO 2010/2018 34017KT SHRA BKN030

Weather observations and forecasts of more than 4000 airports (METAR and TAF reports).

The available stations are represented by yellow and red dots on the map.

Hover mouse over dot to see the name of the station.

Then click to see weather observations and forecasts.

To change the map : click on the green buttons with a black cross to zoom in, on the green button with a dash to zoom out, or on the green arrows for adjacent maps.


METAR-TAF: